Due to severe server failure at the provider, not all demo sites are operational. Will take some days to rebuilt everything.

Demonstration site - Click on the  for more information

This is an optional block. Switch it on/off in your settings-file: $SITE['bannerTop'] = false; or $SITE['bannerBottom'] = false;

You can display ads, any other important text or photo’s using text / html or PHP code.

You can place one or more at the top and or bottom and it can all be different for content / size .



Visit our other weather sites:

Template documentation
and downloads

And another site



Nearby METAR Reports

   
EBAW - Antwerp
Updated: 25-01-2020 05:50
Mist, Overcast  
Mist, Overcast  
   Wind: South 5.6 km/h
Wind: South 5.6 km/h
Temperature: 0°C
Wind Chill: -2°C
Dew Point: -1°C
Humidity: 93%
Barometer: 1022 hPa
Clouds: Overcast
Visibility: 3 km
Cloud details: Mostly Cloudy 500 ft,
Overcast 600 ft
EBAW 250450Z AUTO 19003KT 160V240 3100 BR BKN005/// OVC006/// 00/M01 Q1022
EBLG - Liège
Updated: 25-01-2020 05:50
Freezing, Fog, Mostly Cloudy  
Freezing, Fog, Mostly Cloudy  
   Wind: South 5.6 km/h
Wind: South 5.6 km/h
Temperature: 0°C
Wind Chill: -2°C
Dew Point: -1°C
Humidity: 93%
Barometer: 1021 hPa
Clouds: Mostly Cloudy
Visibility: 1 km
Cloud details: Partly Cloudy 100 ft,
Mostly Cloudy 200 ft
EBLG 250450Z 18003KT 140V210 0500 R22L/1100U R22R/1200N R04R/1100N FZFG SCT001 BKN002 M00/M01 Q1021 TEMPO BKN001
EBCV - Mons/Bergen
Updated: 25-01-2020 05:55
Fog, Overcast  
Fog, Overcast  
   Wind: SW 5.6 km/h
Wind: SW 5.6 km/h
Temperature: 0°C
Wind Chill: -2°C
Dew Point: 0°C
Humidity: 100%
Barometer: 1021 hPa
Clouds: Overcast
Visibility: 0 km
Cloud details: Overcast 200 ft
EBCV 250455Z AUTO 23003KT 0200 FG OVC002/// 00/00 Q1021 RED
EHBK - Maastricht
Updated: 25-01-2020 05:55
Mist, Overcast  
Mist, Overcast  
   Wind: SSW 9.3 km/h
Wind: SSW 9.3 km/h
Temperature: 0°C
Wind Chill: -3°C
Dew Point: 0°C
Humidity: 100%
Barometer: 1021 hPa
Clouds: Overcast
Visibility: 2 km
Cloud details: Overcast 200 ft
EHBK 250455Z AUTO 20005KT 170V230 2100 BR OVC002 00/M00 Q1021 NOSIG
ELLX - Luxemburg
Updated: 25-01-2020 05:50
Mist, Mostly Cloudy  
Mist, Mostly Cloudy  
   Wind: varies 3.7 km/h
Wind: varies 3.7 km/h
Temperature: 0°C
Dew Point: 0°C
Humidity: 100%
Barometer: 1021 hPa
Clouds: Mostly Cloudy
Visibility: 2 km
Cloud details: Partly Cloudy 100 ft,
Mostly Cloudy 300 ft
ELLX 250450Z VRB02KT 1500 BR SCT001 BKN003 M00/M00 Q1021 TEMPO 0500 FZFG VV002
EBOS - Oostende
Updated: 25-01-2020 05:50
Fog, Mostly Cloudy  
Fog, Mostly Cloudy  
   Wind: South 14.8 km/h
Wind: South 14.8 km/h
Temperature: 0°C
Wind Chill: -4°C
Dew Point: -1°C
Humidity: 93%
Barometer: 1021 hPa
Clouds: Mostly Cloudy
Visibility: 1 km
Cloud details: Mostly Cloudy 200 ft
EBOS 250450Z 17008KT 150V210 0800 R08/1900D R26/1900U FG BKN002 00/M01 Q1021 TEMPO 0500 FZFG BKN001

Script developed by  Saratoga-weather.org Adapted for the template by  Weerstation Leuven

This is an optional block. Switch it on/off in your settings-file: $SITE['bannerTop'] = false; or $SITE['bannerBottom'] = false;

You can display ads, any other important text or photo’s using text / html or PHP code.

You can place one or more at the top and or bottom and it can all be different for content / size .